CYOJ

High Level Airport

High Level, Alberta, Canada
METAR CYOJ 251500Z 15003KT 100V160 15SM FEW065 OVC090 02/M01 A2992 RMK SC2AC6 SLP151
Observed Flight Rules
Sep-25 @ 15:00 UTC (34 minutes ago) Visual Flight Rules
Wind Visibility Clouds
150° at 3 knots 15 miles
  • Few at 6,500' AGL
  • Overcast at 9,000' AGL
Temperatures Readings
Current 2°C / 36°F
Dewpoint -1°C / 30°F
Humidity 81%
Altimeter 29.92" Hg
Pressure 1015.1 hPa
Elevation 338
METAR CYOJ 251500Z 15003KT 100V160 15SM FEW065 OVC090 02/M01 A2992 RMK SC2AC6 SLP151
Observed Flight Rules
Sep-25 @ 15:00 UTC
(34 minutes ago)
VFR
Wind Visibility
150° at 3 knots 15 miles
Clouds
  • Few at 6,500' AGL
  • Overcast at 9,000' AGL
Temperature Dewpoint
2°C / 36°F -1°C / 30°F
Humidity Altimeter Pressure
81% 29.92" Hg 1015.1 hPa